WetterOnline ( https://www.wetteronline.de )

Wetter aktuell Karlsruhe

Aktuelles Wetter: Rheinstetten (116m)

6-stündlich | Neueste Meldungen
Ortszeit Temperatur Wetter
Do, 07.07. 14:00 21.8° C bedeckt
Do, 07.07. 8:00 16.0° C wolkig
Do, 07.07. 2:00 12.3° C bedeckt
Mi, 06.07. 20:00 21.5° C bedeckt
Mi, 06.07. 14:00 21.8° C leicht bewölkt
Mi, 06.07. 8:00 17.0° C leicht bewölkt
Mi, 06.07. 2:00 19.2° C wolkenlos
Di, 05.07. 20:00 27.0° C wolkenlos
Ortszeit Temperatur Wetter
Do, 07.07. 15:00 21.4° C bedeckt
Do, 07.07. 14:50 21.4° C bedeckt
Do, 07.07. 14:40 21.6° C bedeckt
Do, 07.07. 14:30 21.7° C bedeckt
Do, 07.07. 14:20 21.7° C bedeckt
Do, 07.07. 14:10 21.8° C bedeckt
Do, 07.07. 14:00 21.8° C bedeckt
Do, 07.07. 13:30 21.4° C bedeckt
Do, 07.07. 13:00 21.1° C bedeckt
Do, 07.07. 12:30 20.6° C bewölkt
Do, 07.07. 12:00 20.0° C bewölkt
Ortszeit Relative Feuchte Sichtweite
Do, 07.07. 14:00 56% 55 km
Do, 07.07. 8:00 66% 55 km
Do, 07.07. 2:00 88% 55 km
Mi, 06.07. 20:00 39% >70 km
Mi, 06.07. 14:00 47% 55 km
Mi, 06.07. 8:00 60% 45 km
Mi, 06.07. 2:00 53% 60 km
Di, 05.07. 20:00 30% >70 km
Ortszeit Relative Feuchte Sichtweite
Do, 07.07. 15:00 57% 50 km
Do, 07.07. 14:50 57% -
Do, 07.07. 14:40 56% -
Do, 07.07. 14:30 57% 65 km
Do, 07.07. 14:20 57% -
Do, 07.07. 14:10 56% -
Do, 07.07. 14:00 56% 55 km
Do, 07.07. 13:30 57% 60 km
Do, 07.07. 13:00 57% 45 km
Do, 07.07. 12:30 57% 50 km
Do, 07.07. 12:00 58% 50 km
Ortszeit Niederschlagsmenge Niederschlagsart
Do, 07.07. 14:00 0.1 l/m2 in 6 Std. Sprühregen
Do, 07.07. 8:00 0.0 l/m2 in 12 Std. -
Do, 07.07. 2:00 0.0 l/m2 in 6 Std. -
Mi, 06.07. 20:00 0.0 l/m2 in 12 Std. -
Mi, 06.07. 14:00 0.0 l/m2 in 6 Std. -
Mi, 06.07. 8:00 0.0 l/m2 in 12 Std. -
Mi, 06.07. 2:00 0.0 l/m2 in 6 Std. -
Di, 05.07. 20:00 0.0 l/m2 in 12 Std. -
Ortszeit Niederschlagsmenge Niederschlagsart
Do, 07.07. 15:00 0.1 l/m2 in 1 Std. Sprühregen
Do, 07.07. 14:50 keine Meldung -
Do, 07.07. 14:40 keine Meldung -
Do, 07.07. 14:30 0.1 l/m2 in 1 Std. Schnee
Do, 07.07. 14:20 keine Meldung -
Do, 07.07. 14:10 keine Meldung -
Do, 07.07. 14:00 0.0 l/m2 in 1 Std. Sprühregen
Do, 07.07. 13:30 0.0 l/m2 in 1 Std. -
Do, 07.07. 13:00 0.0 l/m2 in 1 Std. -
Do, 07.07. 12:30 0.0 l/m2 in 1 Std. -
Do, 07.07. 12:00 0.0 l/m2 in 1 Std. -
Ortszeit Stärke Spitze Richtung
km/h Bft. km/h Grad Sektor
Do, 07.07. 14:00 26 4 39 250° W
Do, 07.07. 8:00 17 3 22 220° SW
Do, 07.07. 2:00 4 1 29 180° S
Mi, 06.07. 20:00 17 3 26 360° N
Mi, 06.07. 14:00 7 2 25 360° N
Mi, 06.07. 8:00 18 3 29 20° N
Mi, 06.07. 2:00 11 2 32 10° N
Di, 05.07. 20:00 13 3 30 240° SW
Ortszeit Stärke Spitze Richtung
km/h Bft. km/h Grad Sektor
Do, 07.07. 15:00 25 4 36 250° W
Do, 07.07. 14:50 25 4 - 250° W
Do, 07.07. 14:40 22 4 - 250° W
Do, 07.07. 14:30 20 4 37 260° W
Do, 07.07. 14:20 20 4 - 260° W
Do, 07.07. 14:10 24 4 - 260° W
Do, 07.07. 14:00 26 4 39 250° W
Do, 07.07. 13:30 22 4 36 260° W
Do, 07.07. 13:00 22 4 36 230° SW
Do, 07.07. 12:30 22 4 36 240° SW
Do, 07.07. 12:00 22 4 32 230° SW
Ortszeit Untergrenze Bedeckung Gattung
total tief tief mittel hoch
Do, 07.07. 14:00 1140 m 8/8 8/8 - - -
Do, 07.07. 8:00 1500 m 7/8 1/8 - - -
Do, 07.07. 2:00 4500 m 8/8 8/8 - - -
Mi, 06.07. 20:00 4800 m 8/8 8/8 - - -
Mi, 06.07. 14:00 1470 m 4/8 4/8 - - -
Mi, 06.07. 8:00 1800 m 2/8 2/8 - - -
Mi, 06.07. 2:00 - 0/8 0/8 - - -
Di, 05.07. 20:00 - 0/8 0/8 - - -
Ortszeit Bedeckungsgrad in Achtel und Wolkenuntergrenze
Do, 07.07. 15:00 5(1230m) 7(1800m) 8(2700m)
Do, 07.07. 14:50 5(1230m) 7(1800m) 8(2700m)
Do, 07.07. 14:40 8
Do, 07.07. 14:30 1(1170m) 3(2100m) 8(2400m)
Do, 07.07. 14:20 1(1170m) 3(2100m) 8(2400m)
Do, 07.07. 14:10 8
Do, 07.07. 14:00 3(1140m) 7(1500m) 8(2700m)
Do, 07.07. 13:30 5(1140m) 6(1350m) 8(1500m)
Do, 07.07. 13:00 3(1140m) 7(1500m) 8(2700m)
Do, 07.07. 12:30 3(2100m) 7(2700m)
Do, 07.07. 12:00 7(2400m)
Ortszeit Luftdruck NN (hPa) Tendenz (hPa in 3 Std.)
Do, 07.07. 14:00 1022 + 0,2
Do, 07.07. 8:00 1022 - 0,4
Do, 07.07. 2:00 1024 - 0,3
Mi, 06.07. 20:00 1023 - 0,3
Mi, 06.07. 14:00 1024 - 0,3
Mi, 06.07. 8:00 1025 + 1,0
Mi, 06.07. 2:00 1023 + 2,1
Di, 05.07. 20:00 1019 - 0,5
Ortszeit Luftdruck NN (hPa) Tendenz (hPa in 3 Std.)
Do, 07.07. 15:00 1023 + 0,6
Do, 07.07. 14:50 1023 keine Meldung
Do, 07.07. 14:40 1023 keine Meldung
Do, 07.07. 14:30 1023 + 0,4
Do, 07.07. 14:20 1023 keine Meldung
Do, 07.07. 14:10 1022 keine Meldung
Do, 07.07. 14:00 1022 + 0,2
Do, 07.07. 13:30 1022 - 0,3
Do, 07.07. 13:00 1022 - 0,3
Do, 07.07. 12:30 1022 + 0,1
Do, 07.07. 12:00 1022 - 0,1
Ortszeit Schneehöhe (cm)
Do, 07.07. 14:00 0
Do, 07.07. 8:00 0
Do, 07.07. 2:00 0
Mi, 06.07. 20:00 0
Mi, 06.07. 14:00 0
Mi, 06.07. 8:00 0
Mi, 06.07. 2:00 0
Di, 05.07. 20:00 0
Ortszeit Schneehöhe (cm)
Do, 07.07. 15:00 0
Do, 07.07. 14:50 0
Do, 07.07. 14:40 0
Do, 07.07. 14:30 0
Do, 07.07. 14:20 0
Do, 07.07. 14:10 0
Do, 07.07. 14:00 0
Do, 07.07. 13:30 0
Do, 07.07. 13:00 0
Do, 07.07. 12:30 0
Do, 07.07. 12:00 0
Link zu dieser Seite / Seite empfehlen

Das Wetter in ...